Time;durP1;ratioP1;P1;durP2;ratioP2;P2;SDS_P1;SDS_P2;PMS_P1;PMS_P2;Temp;Humidity;BMP_temperature;BMP_pressure;BME280_temperature;BME280_humidity;BME280_pressure;Samples;Min_cycle;Max_cycle;Signal;HPM_P1;HPM_P2
2023/05/13 00:02:18;;;;;;;5.00;2.70;;;11.70;98.00;;;;;;5035594;28;20465;-64
2023/05/13 00:04:45;;;;;;;2.63;1.87;;;11.50;98.00;;;;;;5035300;28;20930;-61
2023/05/13 00:07:16;;;;;;;3.20;2.23;;;11.50;98.00;;;;;;5035305;28;20458;-61
2023/05/13 00:09:43;;;;;;;4.40;2.60;;;11.50;98.00;;;;;;5017394;28;20550;-63
2023/05/13 00:12:12;;;;;;;10.50;2.50;;;11.70;98.00;;;;;;5035223;28;20517;-61
2023/05/13 00:14:39;;;;;;;4.50;2.70;;;11.60;98.00;;;;;;5035235;28;20458;-62
2023/05/13 00:17:06;;;;;;;5.37;2.60;;;11.60;98.00;;;;;;5035144;28;20464;-62
2023/05/13 00:19:33;;;;;;;4.50;2.77;;;11.60;98.00;;;;;;5035021;28;20466;-62
2023/05/13 00:22:00;;;;;;;3.00;2.13;;;11.60;98.00;;;;;;5035074;28;20457;-62
2023/05/13 00:24:27;;;;;;;4.67;2.60;;;11.60;98.00;;;;;;5017687;28;20474;-62
2023/05/13 00:26:54;;;;;;;3.33;2.50;;;11.60;98.00;;;;;;5017392;28;20960;-62
2023/05/13 00:29:25;;;;;;;3.60;2.53;;;11.50;98.00;;;;;;5034846;28;20486;-60
2023/05/13 00:31:52;;;;;;;5.40;2.83;;;11.30;98.00;;;;;;5034967;28;20523;-61
2023/05/13 00:34:19;;;;;;;3.73;2.40;;;11.40;98.00;;;;;;5034827;28;20964;-60
2023/05/13 00:36:46;;;;;;;4.50;2.73;;;11.40;98.00;;;;;;5034923;28;20464;-61
2023/05/13 00:39:14;;;;;;;2.87;1.83;;;11.30;98.00;;;;;;5035030;28;20458;-61
2023/05/13 00:41:42;;;;;;;4.10;2.80;;;11.40;98.00;;;;;;5034982;28;20466;-62
2023/05/13 00:44:09;;;;;;;7.80;2.67;;;11.40;98.00;;;;;;5017246;28;20455;-62
2023/05/13 00:46:38;;;;;;;3.10;2.10;;;11.20;98.00;;;;;;5034763;28;20456;-64
2023/05/13 00:49:05;;;;;;;3.77;2.10;;;11.00;98.00;;;;;;5033223;28;20493;-62
2023/05/13 00:51:32;;;;;;;3.17;2.33;;;10.90;98.00;;;;;;5034759;28;20461;-61
2023/05/13 00:53:59;;;;;;;3.27;2.10;;;10.90;98.00;;;;;;5034424;28;20492;-60
2023/05/13 00:56:27;;;;;;;4.17;2.20;;;10.90;98.00;;;;;;5016827;28;20470;-63
2023/05/13 00:58:54;;;;;;;2.50;2.03;;;10.90;98.00;;;;;;5034290;28;20475;-61
2023/05/13 01:01:30;;;;;;;4.63;2.50;;;10.90;98.00;;;;;;5034222;28;20473;-63
2023/05/13 01:04:07;;;;;;;3.77;2.50;;;11.00;98.00;;;;;;5034340;28;20863;-63
2023/05/13 01:06:45;;;;;;;3.37;2.23;;;10.90;98.00;;;;;;5034282;28;20469;-61
2023/05/13 01:09:19;;;;;;;2.60;1.80;;;10.80;98.00;;;;;;5033639;28;20494;-63
2023/05/13 01:11:49;;;;;;;4.90;2.70;;;10.70;98.00;;;;;;5034049;28;20475;-62
2023/05/13 01:14:21;;;;;;;3.00;2.20;;;10.70;98.00;;;;;;5034089;28;20463;-62
2023/05/13 01:16:53;;;;;;;2.90;1.87;;;10.60;98.00;;;;;;5034061;28;20470;-61
2023/05/13 01:19:38;;;;;;;2.43;1.80;;;10.50;98.00;;;;;;5034130;28;20495;-61
2023/05/13 01:22:06;;;;;;;4.30;2.40;;;10.70;98.00;;;;;;5033978;28;20974;-61
2023/05/13 01:24:33;;;;;;;2.70;1.90;;;10.70;98.00;;;;;;5016280;28;21014;-63
2023/05/13 01:27:01;;;;;;;2.97;2.43;;;10.40;98.00;;;;;;5033928;28;20539;-62
2023/05/13 01:29:29;;;;;;;3.07;2.27;;;10.40;98.00;;;;;;5033686;28;21025;-62
2023/05/13 01:31:57;;;;;;;2.70;1.93;;;10.40;98.00;;;;;;5033946;28;20997;-61
2023/05/13 01:34:26;;;;;;;5.17;2.80;;;10.40;98.00;;;;;;5033596;28;20474;-62
2023/05/13 01:36:53;;;;;;;4.13;2.50;;;10.40;98.00;;;;;;5033916;28;20489;-61
2023/05/13 01:39:23;;;;;;;2.90;2.13;;;10.40;98.00;;;;;;5034072;28;20453;-62
2023/05/13 01:41:50;;;;;;;4.33;2.33;;;10.50;98.00;;;;;;5033581;28;20511;-62
2023/05/13 01:44:17;;;;;;;5.10;2.37;;;10.60;98.00;;;;;;5033464;28;20468;-61
2023/05/13 01:46:44;;;;;;;3.87;2.37;;;10.70;98.00;;;;;;5033421;28;20464;-62
2023/05/13 01:49:12;;;;;;;3.57;2.47;;;10.80;98.00;;;;;;5033227;28;20490;-60
2023/05/13 01:51:40;;;;;;;3.57;2.53;;;10.80;98.00;;;;;;5033340;28;20545;-63
2023/05/13 01:54:07;;;;;;;3.80;2.40;;;10.80;98.00;;;;;;5015934;28;20952;-62
2023/05/13 01:56:37;;;;;;;5.87;2.97;;;10.70;98.00;;;;;;5033301;28;20511;-62
2023/05/13 01:59:04;;;;;;;4.30;2.60;;;10.70;98.00;;;;;;5033060;28;20514;-61
2023/05/13 02:01:31;;;;;;;10.50;2.80;;;10.80;98.00;;;;;;5033241;28;20452;-61
2023/05/13 02:03:58;;;;;;;3.83;2.33;;;10.80;98.00;;;;;;5033087;28;20468;-61
2023/05/13 02:06:26;;;;;;;3.57;2.33;;;10.80;98.00;;;;;;5033209;28;20461;-62
2023/05/13 02:08:53;;;;;;;4.30;2.50;;;10.90;98.00;;;;;;5032755;28;20464;-63
2023/05/13 02:11:21;;;;;;;4.63;2.50;;;10.90;98.00;;;;;;5033284;28;20502;-61
2023/05/13 02:13:50;;;;;;;4.40;2.70;;;10.90;98.00;;;;;;5032959;28;20991;-61
2023/05/13 02:16:18;;;;;;;4.90;2.87;;;10.90;98.00;;;;;;5032994;28;20468;-61
2023/05/13 02:18:45;;;;;;;4.33;2.47;;;10.90;98.00;;;;;;5032961;28;20836;-61
2023/05/13 02:21:12;;;;;;;3.47;2.60;;;10.90;98.00;;;;;;5032722;28;20469;-62
2023/05/13 02:23:41;;;;;;;4.40;2.67;;;10.90;98.00;;;;;;5032822;28;20463;-62
2023/05/13 02:26:08;;;;;;;5.53;2.40;;;11.10;98.00;;;;;;5032806;28;20462;-62
2023/05/13 02:28:37;;;;;;;3.80;2.33;;;11.30;98.00;;;;;;5032785;28;20971;-61
2023/05/13 02:31:06;;;;;;;4.63;2.43;;;11.40;98.00;;;;;;5032625;28;20508;-63
2023/05/13 02:33:33;;;;;;;4.30;2.37;;;11.30;98.00;;;;;;5032998;28;20546;-61
2023/05/13 02:36:00;;;;;;;5.93;2.13;;;11.30;98.00;;;;;;5032665;28;20472;-63
2023/05/13 02:38:27;;;;;;;3.97;2.53;;;11.40;98.00;;;;;;5032651;28;20470;-61
2023/05/13 02:40:54;;;;;;;4.40;2.03;;;11.40;98.00;;;;;;5032449;28;20454;-64
2023/05/13 02:43:23;;;;;;;3.77;2.20;;;11.40;98.00;;;;;;5032440;28;20961;-61
2023/05/13 02:45:50;;;;;;;2.50;2.00;;;11.30;98.00;;;;;;5032264;28;20468;-62
2023/05/13 02:48:19;;;;;;;5.53;2.07;;;11.30;98.00;;;;;;5032248;28;20939;-61
2023/05/13 02:50:46;;;;;;;3.97;2.30;;;11.30;98.00;;;;;;5032201;28;20492;-61
2023/05/13 02:53:14;;;;;;;4.17;2.30;;;11.30;98.00;;;;;;5032281;28;20458;-62
2023/05/13 02:55:41;;;;;;;2.97;2.10;;;11.40;98.00;;;;;;5032276;28;20476;-61
2023/05/13 02:58:09;;;;;;;3.17;1.90;;;11.50;98.00;;;;;;5031853;28;20475;-62
2023/05/13 03:00:36;;;;;;;3.23;2.43;;;11.70;98.00;;;;;;5032228;28;20470;-62
2023/05/13 03:03:03;;;;;;;5.00;2.63;;;11.70;98.00;;;;;;5032043;28;20460;-63
2023/05/13 03:05:32;;;;;;;3.67;2.17;;;11.60;98.00;;;;;;5032269;28;20805;-61
2023/05/13 03:07:59;;;;;;;2.53;1.77;;;11.50;98.00;;;;;;5032004;28;20457;-62
2023/05/13 03:10:26;;;;;;;8.47;2.63;;;11.60;98.00;;;;;;5014569;28;20540;-61
2023/05/13 03:12:53;;;;;;;3.83;2.37;;;11.60;98.00;;;;;;5032007;28;20466;-61
2023/05/13 03:15:20;;;;;;;3.90;2.07;;;11.60;98.00;;;;;;5032083;28;20462;-62
2023/05/13 03:17:47;;;;;;;4.73;2.30;;;11.80;98.00;;;;;;5031863;28;20551;-61
2023/05/13 03:20:14;;;;;;;2.87;2.20;;;11.80;98.00;;;;;;5032187;28;20857;-62
2023/05/13 03:22:42;;;;;;;3.33;2.27;;;11.80;98.00;;;;;;5031876;28;20458;-61
2023/05/13 03:25:10;;;;;;;5.20;2.50;;;12.00;98.00;;;;;;5031915;28;20459;-61
2023/05/13 03:27:37;;;;;;;3.60;2.50;;;12.00;98.00;;;;;;5032097;28;20459;-63
2023/05/13 03:30:06;;;;;;;3.90;2.37;;;11.90;98.00;;;;;;5032068;28;20889;-62
2023/05/13 03:32:33;;;;;;;4.10;2.43;;;11.80;98.00;;;;;;4997563;28;20972;-61
2023/05/13 03:35:01;;;;;;;3.17;2.27;;;11.80;98.00;;;;;;5031556;28;20453;-61
2023/05/13 03:37:28;;;;;;;3.40;2.60;;;11.80;98.00;;;;;;5031794;28;21140;-62
2023/05/13 03:39:57;;;;;;;3.83;1.97;;;11.80;98.00;;;;;;5031449;28;20464;-61
2023/05/13 03:42:25;;;;;;;3.93;2.13;;;11.70;98.00;;;;;;5031654;28;20458;-61
2023/05/13 03:44:52;;;;;;;3.80;2.27;;;11.70;98.00;;;;;;5014069;28;21131;-61
2023/05/13 03:47:19;;;;;;;3.70;2.50;;;11.60;98.00;;;;;;5031639;28;20530;-61
2023/05/13 03:49:47;;;;;;;2.30;2.03;;;11.60;98.00;;;;;;5014126;28;20478;-62
2023/05/13 03:52:15;;;;;;;3.20;2.30;;;11.70;98.00;;;;;;5031505;28;20551;-62
2023/05/13 03:54:42;;;;;;;3.70;2.33;;;11.50;98.00;;;;;;5031589;28;20459;-61
2023/05/13 03:57:10;;;;;;;3.43;2.23;;;11.50;98.00;;;;;;5031561;28;20484;-63
2023/05/13 03:59:37;;;;;;;3.93;2.43;;;11.50;98.00;;;;;;5031326;28;20472;-61
2023/05/13 04:02:05;;;;;;;4.70;2.50;;;11.40;98.00;;;;;;5031556;28;20459;-61
2023/05/13 04:04:32;;;;;;;5.03;2.47;;;11.50;98.00;;;;;;5013979;28;20463;-62
2023/05/13 04:06:59;;;;;;;2.80;2.30;;;11.40;98.00;;;;;;5031614;28;20460;-60
2023/05/13 04:09:30;;;;;;;2.80;2.20;;;11.50;98.00;;;;;;5031489;28;20450;-61
2023/05/13 04:11:57;;;;;;;2.50;2.10;;;11.50;98.00;;;;;;5014575;28;20465;-61
2023/05/13 04:14:26;;;;;;;5.13;2.43;;;11.50;98.00;;;;;;5031508;28;20817;-62
2023/05/13 04:16:53;;;;;;;3.90;2.47;;;11.50;98.00;;;;;;5031604;28;20826;-61
2023/05/13 04:19:20;;;;;;;3.83;2.30;;;11.50;98.00;;;;;;5031473;28;20447;-62
2023/05/13 04:21:47;;;;;;;4.80;2.70;;;11.60;98.00;;;;;;5031523;28;20469;-61
2023/05/13 04:24:14;;;;;;;3.83;2.60;;;11.60;98.00;;;;;;5031645;28;20471;-64
2023/05/13 04:26:42;;;;;;;3.90;2.43;;;11.60;98.00;;;;;;5031384;28;20461;-61
2023/05/13 04:29:09;;;;;;;4.57;2.67;;;11.50;98.00;;;;;;5013882;28;20821;-62
2023/05/13 04:31:37;;;;;;;3.50;2.47;;;11.50;98.00;;;;;;5031325;28;20483;-61
2023/05/13 04:34:04;;;;;;;3.60;2.47;;;11.50;98.00;;;;;;5031177;28;20538;-62
2023/05/13 04:36:31;;;;;;;3.37;2.50;;;11.50;98.00;;;;;;5030964;28;20553;-62
2023/05/13 04:38:58;;;;;;;4.23;2.67;;;11.60;98.00;;;;;;5030916;28;20472;-61
2023/05/13 04:41:25;;;;;;;3.60;2.30;;;11.50;98.00;;;;;;5031125;28;20484;-62
2023/05/13 04:43:56;;;;;;;3.60;2.47;;;11.50;98.00;;;;;;5031002;28;20458;-61
2023/05/13 04:46:23;;;;;;;3.10;2.17;;;11.70;98.00;;;;;;5033980;28;20458;-62
2023/05/13 04:48:52;;;;;;;4.10;2.43;;;11.60;98.00;;;;;;5034550;28;20832;-61
2023/05/13 04:51:20;;;;;;;3.90;2.33;;;11.60;98.00;;;;;;5034581;28;20505;-61
2023/05/13 04:53:47;;;;;;;4.57;2.60;;;11.60;98.00;;;;;;5034073;28;20448;-61
2023/05/13 04:56:15;;;;;;;3.70;2.60;;;11.60;98.00;;;;;;5034577;28;20969;-61
2023/05/13 04:58:42;;;;;;;3.83;2.43;;;11.50;98.00;;;;;;5034010;28;20462;-62
2023/05/13 05:01:09;;;;;;;3.87;2.40;;;11.40;98.00;;;;;;5034621;28;20516;-61
2023/05/13 05:03:36;;;;;;;3.30;2.20;;;11.50;98.00;;;;;;5034305;28;20465;-61
2023/05/13 05:06:05;;;;;;;4.23;2.80;;;11.60;98.00;;;;;;5034313;28;20468;-61
2023/05/13 05:08:32;;;;;;;8.63;2.80;;;11.60;98.00;;;;;;5034385;28;20460;-62
2023/05/13 05:11:00;;;;;;;4.50;2.57;;;11.60;98.00;;;;;;5016631;28;20498;-62
2023/05/13 05:13:27;;;;;;;7.33;2.57;;;11.80;98.00;;;;;;5016897;28;20486;-61
2023/05/13 05:15:54;;;;;;;4.43;2.37;;;11.80;98.00;;;;;;5034232;28;20469;-62
2023/05/13 05:18:23;;;;;;;4.27;2.80;;;11.80;98.00;;;;;;5034285;28;20461;-61
2023/05/13 05:20:50;;;;;;;3.77;2.60;;;12.00;98.00;;;;;;5016798;28;20454;-61
2023/05/13 05:23:18;;;;;;;5.63;2.93;;;11.90;98.00;;;;;;5034333;28;20884;-61
2023/05/13 05:25:45;;;;;;;4.40;2.70;;;11.90;98.00;;;;;;5033856;28;20859;-62
2023/05/13 05:28:13;;;;;;;4.27;2.60;;;11.90;98.00;;;;;;5033840;28;20956;-63
2023/05/13 05:30:40;;;;;;;5.63;3.50;;;11.80;98.00;;;;;;5033729;28;20493;-62
2023/05/13 05:33:08;;;;;;;3.73;2.60;;;11.90;98.00;;;;;;5033608;28;20447;-61
2023/05/13 05:35:37;;;;;;;3.13;2.63;;;12.10;98.00;;;;;;5033724;28;20942;-61
2023/05/13 05:38:04;;;;;;;3.83;2.50;;;12.10;98.00;;;;;;5033525;28;20465;-61
2023/05/13 05:40:33;;;;;;;5.13;2.30;;;12.00;98.00;;;;;;5033593;28;20918;-62
2023/05/13 05:43:00;;;;;;;5.30;2.90;;;11.90;98.00;;;;;;5033422;28;20468;-61
2023/05/13 05:45:28;;;;;;;4.87;2.63;;;11.90;98.00;;;;;;5033742;28;20469;-62
2023/05/13 05:47:56;;;;;;;4.83;2.70;;;12.00;98.00;;;;;;5033469;28;20460;-63
2023/05/13 05:50:23;;;;;;;4.53;2.57;;;12.00;98.00;;;;;;5016138;28;20492;-61
2023/05/13 05:52:51;;;;;;;3.93;2.53;;;11.90;98.00;;;;;;5033463;28;20864;-63
2023/05/13 05:55:18;;;;;;;3.93;2.30;;;11.90;98.00;;;;;;5015545;28;20468;-61
2023/05/13 05:57:48;;;;;;;4.80;2.70;;;12.10;98.00;;;;;;5015667;28;20462;-61
2023/05/13 06:00:16;;;;;;;3.87;2.57;;;12.10;98.00;;;;;;5016002;28;20927;-62
2023/05/13 06:02:43;;;;;;;9.20;3.37;;;12.20;98.00;;;;;;5033341;28;20781;-60
2023/05/13 06:05:10;;;;;;;4.50;2.50;;;12.40;98.00;;;;;;5033280;28;20457;-60
2023/05/13 06:07:37;;;;;;;5.60;3.30;;;12.50;98.00;;;;;;5033313;28;20467;-60
2023/05/13 06:10:08;;;;;;;4.70;2.60;;;12.50;98.00;;;;;;5032962;28;20447;-60
2023/05/13 06:12:35;;;;;;;4.10;2.57;;;12.50;98.00;;;;;;5013290;28;20449;-60
2023/05/13 06:15:09;;;;;;;5.03;2.83;;;12.60;98.00;;;;;;5012700;28;20467;-60
2023/05/13 06:17:36;;;;;;;5.43;3.23;;;12.50;98.00;;;;;;5012798;28;20454;-60
2023/05/13 06:20:04;;;;;;;3.40;2.83;;;12.50;98.00;;;;;;5012366;28;20457;-60
2023/05/13 06:22:31;;;;;;;5.27;3.00;;;12.50;98.00;;;;;;5012586;28;20517;-61
2023/05/13 06:24:58;;;;;;;4.80;2.57;;;12.60;98.00;;;;;;5012294;28;20459;-60
2023/05/13 06:27:26;;;;;;;3.80;2.50;;;12.60;98.00;;;;;;5012504;28;20485;-60
2023/05/13 06:29:53;;;;;;;5.00;2.80;;;12.80;98.00;;;;;;4994725;28;20468;-62
2023/05/13 06:32:21;;;;;;;6.67;2.93;;;12.90;98.00;;;;;;4994812;28;20490;-61
2023/05/13 06:34:51;;;;;;;4.57;2.73;;;13.00;98.00;;;;;;5012022;28;20460;-61
2023/05/13 06:37:18;;;;;;;5.50;2.90;;;12.90;98.00;;;;;;5012169;28;20458;-60
2023/05/13 06:39:45;;;;;;;6.10;3.20;;;12.90;98.00;;;;;;5012128;28;20464;-62
2023/05/13 06:42:12;;;;;;;6.90;3.00;;;12.90;98.00;;;;;;5012178;28;20460;-60
2023/05/13 06:44:40;;;;;;;4.17;2.50;;;13.10;98.00;;;;;;5012014;28;20869;-62
2023/05/13 06:47:09;;;;;;;4.43;2.53;;;13.10;98.00;;;;;;4994105;28;20457;-60
2023/05/13 06:49:37;;;;;;;5.50;2.73;;;13.10;98.00;;;;;;5012084;28;20484;-61
2023/05/13 06:52:05;;;;;;;4.13;2.57;;;13.20;98.00;;;;;;5011914;28;20498;-60
2023/05/13 06:54:32;;;;;;;5.33;3.37;;;13.20;98.00;;;;;;5011838;28;20518;-61
2023/05/13 06:56:59;;;;;;;4.60;2.57;;;13.20;98.00;;;;;;5011953;28;20862;-60
2023/05/13 06:59:26;;;;;;;3.00;2.27;;;13.10;98.00;;;;;;4994334;28;20468;-61
2023/05/13 07:01:53;;;;;;;4.17;2.73;;;13.20;98.00;;;;;;5011667;28;20458;-60
2023/05/13 07:04:20;;;;;;;4.73;3.10;;;13.40;98.00;;;;;;4994314;28;20465;-61
2023/05/13 07:06:50;;;;;;;4.83;2.70;;;13.50;98.00;;;;;;5011547;28;20453;-60
2023/05/13 07:09:17;;;;;;;4.50;2.70;;;13.50;98.00;;;;;;5011379;28;20466;-60
2023/05/13 07:11:44;;;;;;;3.30;2.47;;;13.70;98.00;;;;;;5026722;28;20494;-60
2023/05/13 07:14:11;;;;;;;4.87;2.53;;;13.80;98.00;;;;;;5031416;28;20954;-60
2023/05/13 07:16:39;;;;;;;5.63;2.80;;;13.90;98.00;;;;;;5031426;28;21031;-62
2023/05/13 07:19:06;;;;;;;4.10;2.60;;;14.00;98.00;;;;;;5031150;28;20463;-61
2023/05/13 07:21:33;;;;;;;3.30;2.50;;;13.90;98.00;;;;;;5031555;28;20457;-60
2023/05/13 07:24:04;;;;;;;4.80;3.20;;;13.90;98.00;;;;;;5032132;28;20971;-63
2023/05/13 07:26:31;;;;;;;3.93;2.60;;;13.90;98.00;;;;;;5031396;28;21004;-62
2023/05/13 07:28:58;;;;;;;4.47;2.73;;;13.90;98.00;;;;;;5031281;28;20453;-59
2023/05/13 07:31:25;;;;;;;4.63;2.87;;;14.00;98.00;;;;;;5031724;28;20571;-61
2023/05/13 07:33:52;;;;;;;4.00;2.83;;;13.70;98.00;;;;;;5031124;28;20828;-60
2023/05/13 07:36:19;;;;;;;5.60;2.93;;;13.70;98.00;;;;;;5031019;28;20955;-60
2023/05/13 07:38:46;;;;;;;4.03;2.90;;;13.90;98.00;;;;;;5030983;28;20447;-60
2023/05/13 07:41:15;;;;;;;3.60;2.80;;;13.70;98.00;;;;;;5030991;28;20462;-60
2023/05/13 07:43:42;;;;;;;3.37;2.50;;;13.70;98.00;;;;;;5030986;28;20962;-61
2023/05/13 07:46:09;;;;;;;4.17;2.50;;;13.60;98.00;;;;;;5031044;28;20453;-59
2023/05/13 07:48:36;;;;;;;3.10;2.40;;;13.80;98.00;;;;;;5031518;28;20534;-60
2023/05/13 07:51:04;;;;;;;5.23;2.80;;;14.00;98.00;;;;;;5031311;28;20479;-60
2023/05/13 07:53:32;;;;;;;17.53;2.90;;;14.10;98.00;;;;;;5013169;28;20465;-60
2023/05/13 07:55:59;;;;;;;4.20;2.63;;;14.20;98.00;;;;;;5030626;28;20956;-60
2023/05/13 07:58:29;;;;;;;4.07;2.70;;;14.30;98.00;;;;;;5030552;28;20462;-60
2023/05/13 08:00:56;;;;;;;7.30;2.80;;;14.30;98.00;;;;;;4997080;28;20466;-59
2023/05/13 08:03:23;;;;;;;5.10;2.70;;;14.00;98.00;;;;;;5030849;28;20547;-59
2023/05/13 08:05:50;;;;;;;4.90;2.93;;;14.00;98.00;;;;;;5030888;28;20811;-60
2023/05/13 08:08:26;;;;;;;4.73;2.80;;;13.90;98.00;;;;;;5030973;28;20458;-60
2023/05/13 08:10:53;;;;;;;4.73;2.83;;;13.80;98.00;;;;;;5030581;28;20491;-60
2023/05/13 08:13:20;;;;;;;5.23;2.77;;;13.90;98.00;;;;;;5030877;28;20471;-61
2023/05/13 08:15:50;;;;;;;3.43;2.60;;;13.90;98.00;;;;;;5030722;28;20452;-59
2023/05/13 08:18:17;;;;;;;5.07;2.73;;;13.80;98.00;;;;;;5030652;28;20560;-60
2023/05/13 08:20:45;;;;;;;7.73;2.57;;;14.00;98.00;;;;;;5034519;28;20657;-59
2023/05/13 08:23:12;;;;;;;4.97;2.90;;;14.00;98.00;;;;;;5034497;28;20450;-60
2023/05/13 08:25:40;;;;;;;3.60;2.40;;;14.00;98.00;;;;;;5033793;28;20459;-60
2023/05/13 08:28:07;;;;;;;4.73;2.77;;;14.20;98.00;;;;;;5016726;28;20450;-60
2023/05/13 08:30:35;;;;;;;5.00;2.40;;;14.20;98.00;;;;;;5034377;28;20463;-61
2023/05/13 08:33:03;;;;;;;5.67;2.47;;;14.10;98.00;;;;;;5034044;28;21139;-59
2023/05/13 08:35:31;;;;;;;3.63;2.70;;;14.20;98.00;;;;;;5034086;28;20457;-59
2023/05/13 08:37:58;;;;;;;4.27;2.63;;;14.20;98.00;;;;;;5034223;28;20455;-61
2023/05/13 08:40:25;;;;;;;4.40;2.47;;;14.20;98.00;;;;;;5016587;28;20458;-61
2023/05/13 08:42:55;;;;;;;4.57;2.37;;;14.10;98.00;;;;;;5034287;28;20461;-60
2023/05/13 08:45:26;;;;;;;3.90;2.40;;;14.10;98.00;;;;;;5034145;28;20498;-59
2023/05/13 08:47:58;;;;;;;3.23;2.27;;;14.10;98.00;;;;;;5017050;28;20524;-60
2023/05/13 08:50:28;;;;;;;4.20;2.53;;;14.00;98.00;;;;;;5033882;28;21007;-60
2023/05/13 08:52:57;;;;;;;4.53;2.50;;;14.20;98.00;;;;;;5033876;28;20492;-59
2023/05/13 08:55:24;;;;;;;3.60;2.30;;;14.20;98.00;;;;;;5033759;28;20461;-60
2023/05/13 08:57:53;;;;;;;3.73;2.20;;;14.30;98.00;;;;;;5033698;28;20460;-60
2023/05/13 09:00:20;;;;;;;2.73;2.40;;;14.20;98.00;;;;;;5034015;28;20457;-61
2023/05/13 09:02:49;;;;;;;3.40;2.17;;;14.30;98.00;;;;;;5033896;28;20455;-59
2023/05/13 09:05:16;;;;;;;3.10;2.20;;;14.30;98.00;;;;;;5033894;28;20513;-59
2023/05/13 09:07:44;;;;;;;4.07;2.73;;;14.30;98.00;;;;;;5033792;28;20462;-59
2023/05/13 09:10:11;;;;;;;3.77;2.37;;;14.40;98.00;;;;;;5033915;28;20468;-59
2023/05/13 09:12:45;;;;;;;3.50;2.27;;;14.20;98.00;;;;;;5033607;28;20488;-60
2023/05/13 09:15:14;;;;;;;8.00;2.40;;;14.20;98.00;;;;;;5033315;28;20462;-61
2023/05/13 09:17:42;;;;;;;3.87;2.47;;;14.30;98.00;;;;;;5033457;28;20523;-60
2023/05/13 09:20:11;;;;;;;4.13;2.50;;;14.30;98.00;;;;;;5033365;28;20526;-60
2023/05/13 09:22:42;;;;;;;3.23;2.50;;;14.40;98.00;;;;;;5032119;28;20474;-60
2023/05/13 09:25:13;;;;;;;4.77;2.63;;;14.40;98.00;;;;;;5032781;28;20492;-60
2023/05/13 09:27:42;;;;;;;2.77;2.10;;;14.40;98.00;;;;;;5033083;28;21023;-60
2023/05/13 09:30:10;;;;;;;4.10;2.30;;;14.40;98.00;;;;;;5032519;28;20491;-60
2023/05/13 09:32:38;;;;;;;3.50;2.27;;;14.40;98.00;;;;;;5032821;28;20486;-61
2023/05/13 09:35:16;;;;;;;4.00;2.27;;;14.40;98.00;;;;;;5015384;28;20464;-60
2023/05/13 09:37:45;;;;;;;3.53;2.30;;;14.50;98.00;;;;;;5032854;28;20970;-59
2023/05/13 09:40:14;;;;;;;4.07;2.70;;;14.60;98.00;;;;;;5032471;28;20874;-60
2023/05/13 09:42:43;;;;;;;4.00;2.20;;;14.70;98.00;;;;;;5032868;28;20461;-60
2023/05/13 09:45:11;;;;;;;4.43;2.60;;;14.70;98.00;;;;;;5032603;28;20868;-59
2023/05/13 09:47:39;;;;;;;2.97;2.30;;;14.70;98.00;;;;;;5032752;28;20514;-59
2023/05/13 09:50:07;;;;;;;5.20;2.63;;;14.70;98.00;;;;;;5032710;28;20503;-60
2023/05/13 09:52:37;;;;;;;4.10;2.40;;;14.80;98.00;;;;;;5032640;28;20521;-60
2023/05/13 09:55:09;;;;;;;3.60;2.50;;;14.90;98.00;;;;;;5032546;28;20468;-60
2023/05/13 09:57:39;;;;;;;4.10;2.40;;;14.90;98.00;;;;;;5032887;28;20490;-60
2023/05/13 10:00:08;;;;;;;4.07;2.63;;;15.00;98.00;;;;;;5032166;28;20463;-62
2023/05/13 10:02:35;;;;;;;2.53;2.30;;;15.10;98.00;;;;;;5013828;28;20474;-59
2023/05/13 10:05:03;;;;;;;3.47;2.27;;;15.30;98.00;;;;;;5030610;28;20458;-61
2023/05/13 10:07:33;;;;;;;4.90;2.60;;;15.50;98.00;;;;;;5013343;28;20462;-60
2023/05/13 10:10:02;;;;;;;2.90;2.20;;;15.70;98.00;;;;;;5032848;28;20489;-59
2023/05/13 10:12:32;;;;;;;3.20;2.20;;;15.80;98.00;;;;;;5032689;28;20485;-60
2023/05/13 10:15:02;;;;;;;3.60;2.30;;;15.90;98.00;;;;;;5032779;28;20572;-60
2023/05/13 10:17:30;;;;;;;5.53;2.70;;;16.10;98.00;;;;;;5032740;28;20457;-60
2023/05/13 10:20:00;;;;;;;3.80;2.17;;;16.10;98.00;;;;;;5032664;28;20552;-61
2023/05/13 10:22:29;;;;;;;3.47;2.10;;;16.10;98.00;;;;;;5033100;28;20455;-61
2023/05/13 10:24:58;;;;;;;4.13;2.40;;;16.20;98.00;;;;;;5032517;28;20544;-60
2023/05/13 10:27:28;;;;;;;3.33;2.40;;;16.20;98.00;;;;;;5032285;28;20550;-59
2023/05/13 10:29:55;;;;;;;4.57;2.53;;;16.00;98.00;;;;;;5015017;28;20489;-59
2023/05/13 10:32:25;;;;;;;3.47;2.20;;;16.00;98.00;;;;;;5015025;28;20539;-60
2023/05/13 10:34:56;;;;;;;3.80;2.70;;;15.80;98.00;;;;;;5032438;28;20493;-59
2023/05/13 10:37:54;;;;;;;4.30;2.70;;;15.80;98.00;;;;;;5032670;28;20939;-59
2023/05/13 10:40:54;;;;;;;3.50;2.40;;;15.60;98.00;;;;;;5032400;28;20455;-61
2023/05/13 10:43:24;;;;;;;3.50;2.20;;;15.50;98.00;;;;;;4998981;28;20464;-59
2023/05/13 10:45:56;;;;;;;3.67;2.50;;;15.60;98.00;;;;;;5032412;28;20480;-60
2023/05/13 10:48:37;;;;;;;4.27;2.23;;;15.60;98.00;;;;;;5032575;28;20852;-61
2023/05/13 10:51:06;;;;;;;3.53;2.30;;;15.60;98.00;;;;;;5032620;28;20644;-61
2023/05/13 10:53:43;;;;;;;3.57;2.13;;;15.50;98.00;;;;;;5032196;28;20489;-59
2023/05/13 10:56:11;;;;;;;5.70;2.50;;;15.40;98.00;;;;;;5032151;28;20563;-62
2023/05/13 10:58:38;;;;;;;3.23;2.17;;;15.50;98.00;;;;;;5031811;28;20520;-60
2023/05/13 11:01:16;;;;;;;3.77;2.20;;;15.40;98.00;;;;;;5032113;28;20451;-60
2023/05/13 11:03:52;;;;;;;4.13;2.30;;;15.60;98.00;;;;;;5031734;28;20506;-61
2023/05/13 11:06:22;;;;;;;3.47;2.40;;;15.60;98.00;;;;;;5032257;28;20879;-60
2023/05/13 11:08:51;;;;;;;2.70;2.00;;;15.50;98.00;;;;;;5031670;28;20999;-61
2023/05/13 11:11:27;;;;;;;3.27;2.30;;;15.50;98.00;;;;;;5014482;28;20567;-59
2023/05/13 11:13:55;;;;;;;3.90;2.40;;;15.60;98.00;;;;;;5031801;28;20458;-59
2023/05/13 11:16:24;;;;;;;2.40;2.07;;;15.60;98.00;;;;;;5031631;28;20577;-60
2023/05/13 11:18:53;;;;;;;4.47;2.67;;;15.90;98.00;;;;;;5031254;28;21062;-61
2023/05/13 11:21:30;;;;;;;3.57;2.60;;;15.90;98.00;;;;;;5031727;28;20466;-60
2023/05/13 11:23:58;;;;;;;5.20;2.90;;;16.00;98.00;;;;;;5031717;28;20454;-59
2023/05/13 11:26:25;;;;;;;4.20;2.60;;;16.10;98.00;;;;;;5031618;28;20508;-59
2023/05/13 11:28:57;;;;;;;3.33;2.20;;;16.10;98.00;;;;;;5031491;28;20835;-60
2023/05/13 11:31:26;;;;;;;5.33;2.60;;;16.10;98.00;;;;;;5031690;28;20458;-60
2023/05/13 11:34:13;;;;;;;3.90;2.40;;;16.20;98.00;;;;;;5031625;28;20486;-60
2023/05/13 11:36:41;;;;;;;2.70;2.30;;;16.20;98.00;;;;;;5031589;28;20461;-61
2023/05/13 11:39:12;;;;;;;3.13;2.03;;;16.20;98.00;;;;;;5031805;28;20946;-61
2023/05/13 11:41:41;;;;;;;9.20;3.80;;;16.30;98.00;;;;;;5014560;28;20541;-62
2023/05/13 11:44:09;;;;;;;4.57;2.50;;;16.40;98.00;;;;;;5031724;28;20812;-63
2023/05/13 11:46:36;;;;;;;3.10;2.30;;;16.60;98.00;;;;;;5031919;28;20449;-62
2023/05/13 11:49:05;;;;;;;3.00;2.20;;;16.80;98.00;;;;;;5031663;28;20550;-62
2023/05/13 11:51:34;;;;;;;4.03;2.50;;;17.00;98.00;;;;;;5031511;28;20936;-62
2023/05/13 11:54:05;;;;;;;3.77;2.33;;;17.20;98.00;;;;;;5032567;28;20493;-60
2023/05/13 11:56:32;;;;;;;2.70;2.20;;;17.10;98.00;;;;;;5035116;28;20450;-59
2023/05/13 11:59:14;;;;;;;3.60;2.33;;;17.00;98.00;;;;;;5034651;28;20466;-61
2023/05/13 12:01:42;;;;;;;2.73;2.40;;;16.80;98.00;;;;;;5034774;28;20969;-60
2023/05/13 12:04:09;;;;;;;4.57;2.80;;;16.60;98.00;;;;;;5035035;28;20466;-61
2023/05/13 12:06:44;;;;;;;3.63;2.40;;;16.50;98.00;;;;;;5034787;28;20462;-60
2023/05/13 12:09:12;;;;;;;6.80;2.30;;;16.40;98.00;;;;;;5034784;28;20517;-60
2023/05/13 12:11:40;;;;;;;4.33;3.00;;;16.30;98.00;;;;;;5034398;28;20453;-62
2023/05/13 12:14:08;;;;;;;3.87;2.50;;;16.40;98.00;;;;;;5032595;28;20580;-60
2023/05/13 12:16:40;;;;;;;4.40;2.77;;;16.20;98.00;;;;;;5034273;28;20464;-60
2023/05/13 12:19:07;;;;;;;4.00;2.70;;;16.40;98.00;;;;;;5034044;28;20507;-60
2023/05/13 12:21:35;;;;;;;3.47;2.20;;;16.60;98.00;;;;;;5033465;28;20948;-60
2023/05/13 12:24:17;;;;;;;4.67;2.80;;;16.80;98.00;;;;;;5034455;28;20470;-61
2023/05/13 12:26:44;;;;;;;3.97;2.30;;;17.10;98.00;;;;;;5034402;28;20454;-61
2023/05/13 12:29:11;;;;;;;6.30;2.70;;;17.40;98.00;;;;;;5034557;28;20493;-60
2023/05/13 12:31:38;;;;;;;6.03;2.60;;;17.80;98.00;;;;;;5034462;28;20462;-61
2023/05/13 12:34:06;;;;;;;5.93;2.80;;;18.10;98.00;;;;;;5034262;28;20856;-60
2023/05/13 12:36:37;;;;;;;3.70;2.33;;;18.30;98.00;;;;;;5034530;28;20542;-60
2023/05/13 12:39:07;;;;;;;3.40;2.60;;;18.20;98.00;;;;;;5034093;28;21020;-59
2023/05/13 12:41:36;;;;;;;4.90;3.07;;;17.90;98.00;;;;;;5034312;28;20679;-60
2023/05/13 12:44:07;;;;;;;4.43;2.73;;;17.70;98.00;;;;;;5034323;28;20458;-60
2023/05/13 12:46:35;;;;;;;3.90;2.60;;;17.30;98.00;;;;;;5034284;28;20481;-60
2023/05/13 12:49:03;;;;;;;4.30;2.80;;;17.00;98.00;;;;;;5034087;28;20465;-59
2023/05/13 12:51:31;;;;;;;4.13;2.60;;;16.70;98.00;;;;;;5034171;28;20883;-60
2023/05/13 12:53:59;;;;;;;4.50;2.73;;;16.50;98.00;;;;;;5033713;28;20565;-60